Time;durP1;ratioP1;P1;durP2;ratioP2;P2;SDS_P1;SDS_P2;PMS_P1;PMS_P2;Temp;Humidity;BMP_temperature;BMP_pressure;BME280_temperature;BME280_humidity;BME280_pressure;Samples;Min_cycle;Max_cycle;Signal;HPM_P1;HPM_P2
2023/05/15 00:01:33;;;;;;;8.27;7.38;;;21.40;69.10;;;;;;4894087;28;87271;-87
2023/05/15 00:03:58;;;;;;;7.57;6.85;;;21.50;69.10;;;;;;4896276;28;87856;-89
2023/05/15 00:06:24;;;;;;;7.95;7.15;;;21.50;69.40;;;;;;4892409;28;90054;-89
2023/05/15 00:08:50;;;;;;;7.80;7.05;;;21.50;69.30;;;;;;4895357;28;87992;-86
2023/05/15 00:11:15;;;;;;;8.43;7.63;;;21.50;69.20;;;;;;4893059;28;90720;-86
2023/05/15 00:13:41;;;;;;;10.48;8.13;;;21.40;69.10;;;;;;4895671;28;88474;-87
2023/05/15 00:16:08;;;;;;;7.75;7.05;;;21.40;69.20;;;;;;4892900;28;89711;-86
2023/05/15 00:18:34;;;;;;;7.90;7.10;;;21.40;69.10;;;;;;4892439;28;89598;-86
2023/05/15 00:20:59;;;;;;;7.55;6.85;;;21.50;69.20;;;;;;4893942;28;89169;-88
2023/05/15 00:23:25;;;;;;;7.43;6.65;;;21.40;69.30;;;;;;4894935;28;88484;-87
2023/05/15 00:25:51;;;;;;;7.93;6.47;;;21.40;69.20;;;;;;4892790;28;88244;-87
2023/05/15 00:28:17;;;;;;;8.40;7.60;;;21.40;69.20;;;;;;4895469;28;88809;-86
2023/05/15 00:30:42;;;;;;;7.78;7.07;;;21.40;69.20;;;;;;4891788;28;88600;-85
2023/05/15 00:33:08;;;;;;;8.10;7.38;;;21.40;69.00;;;;;;4893078;28;87799;-87
2023/05/15 00:35:33;;;;;;;8.20;7.40;;;21.40;69.20;;;;;;4890211;28;87539;-86
2023/05/15 00:37:59;;;;;;;9.27;7.53;;;21.40;69.20;;;;;;4904449;28;87334;-86
2023/05/15 00:40:26;;;;;;;7.65;6.95;;;21.40;69.20;;;;;;4908931;28;88453;-85
2023/05/15 00:42:53;;;;;;;7.57;6.88;;;21.40;69.20;;;;;;4892736;28;87571;-87
2023/05/15 00:45:20;;;;;;;8.98;7.78;;;21.40;69.30;;;;;;4894053;28;88154;-91
2023/05/15 00:47:46;;;;;;;7.25;6.55;;;21.40;69.30;;;;;;4892807;28;89526;-86
2023/05/15 00:50:13;;;;;;;8.85;7.68;;;21.40;69.20;;;;;;4895023;28;87878;-87
2023/05/15 00:52:39;;;;;;;7.35;6.65;;;21.30;69.00;;;;;;4893556;28;87673;-87
2023/05/15 00:55:05;;;;;;;7.40;6.70;;;21.40;69.20;;;;;;4894120;28;87984;-87
2023/05/15 00:57:31;;;;;;;7.28;6.57;;;21.40;69.10;;;;;;4892538;28;87638;-86
2023/05/15 00:59:59;;;;;;;7.88;7.05;;;21.30;69.10;;;;;;4894054;28;87629;-89
2023/05/15 01:02:25;;;;;;;7.78;6.63;;;21.30;69.00;;;;;;4894070;28;87565;-86
2023/05/15 01:04:51;;;;;;;7.90;7.00;;;21.30;69.10;;;;;;4893742;28;87071;-87
2023/05/15 01:07:17;;;;;;;8.27;7.47;;;21.30;69.20;;;;;;4894044;28;90481;-86
2023/05/15 01:09:43;;;;;;;7.47;6.78;;;21.30;69.10;;;;;;4892954;28;87701;-85
2023/05/15 01:12:10;;;;;;;8.32;7.40;;;21.30;69.00;;;;;;4892275;28;88265;-85
2023/05/15 01:14:36;;;;;;;8.85;7.43;;;21.30;69.10;;;;;;4893827;28;87398;-87
2023/05/15 01:17:01;;;;;;;7.97;7.28;;;21.30;69.00;;;;;;4895751;28;87479;-86
2023/05/15 01:19:28;;;;;;;7.45;6.75;;;21.30;69.00;;;;;;4893349;28;88859;-88
2023/05/15 01:22:19;;;;;;;8.18;7.25;;;21.30;69.00;;;;;;4891052;28;88164;-87
2023/05/15 01:25:23;;;;;;;10.05;8.10;;;21.30;69.10;;;;;;4894186;28;87929;-88
2023/05/15 01:27:53;;;;;;;8.55;7.30;;;21.30;69.30;;;;;;4890946;28;87725;-89
2023/05/15 01:30:29;;;;;;;8.20;7.40;;;21.20;69.20;;;;;;4893290;28;88417;-88
2023/05/15 01:33:23;;;;;;;7.63;6.93;;;21.20;69.10;;;;;;4907720;28;87155;-90
2023/05/15 01:35:49;;;;;;;8.55;7.50;;;21.20;69.40;;;;;;4892957;28;87420;-86
2023/05/15 01:38:37;;;;;;;8.13;7.32;;;21.30;69.30;;;;;;4890522;28;91821;-87
2023/05/15 01:41:15;;;;;;;6.88;6.28;;;21.30;69.10;;;;;;4892775;28;89002;-86
2023/05/15 01:43:44;;;;;;;7.80;7.00;;;21.20;69.20;;;;;;4892820;28;87238;-88
2023/05/15 01:46:16;;;;;;;9.95;7.40;;;21.20;69.20;;;;;;4893612;28;87848;-89
2023/05/15 01:48:44;;;;;;;8.13;7.32;;;21.20;69.20;;;;;;4891538;28;92244;-87
2023/05/15 01:51:12;;;;;;;7.55;6.85;;;21.20;69.20;;;;;;4892847;28;86971;-87
2023/05/15 01:53:39;;;;;;;8.77;7.75;;;21.20;69.20;;;;;;4893213;28;87360;-86
2023/05/15 01:56:08;;;;;;;8.48;7.18;;;21.20;69.40;;;;;;4892969;28;89599;-86
2023/05/15 01:58:36;;;;;;;8.52;7.82;;;21.20;69.40;;;;;;4893772;28;88793;-85
2023/05/15 02:01:03;;;;;;;8.18;7.38;;;21.20;69.30;;;;;;4907492;28;89517;-89
2023/05/15 02:03:33;;;;;;;7.88;7.07;;;21.20;69.30;;;;;;4892020;28;88472;-85
2023/05/15 02:06:00;;;;;;;8.18;7.38;;;21.20;69.40;;;;;;4893864;28;86936;-86
2023/05/15 02:08:27;;;;;;;8.35;7.32;;;21.20;69.30;;;;;;4895515;28;88009;-88
2023/05/15 02:10:55;;;;;;;7.53;6.82;;;21.20;69.20;;;;;;4895110;28;89956;-85
2023/05/15 02:13:23;;;;;;;7.25;6.55;;;21.20;69.40;;;;;;4895645;28;87718;-87
2023/05/15 02:15:48;;;;;;;7.65;6.90;;;21.20;69.20;;;;;;4895847;28;87971;-88
2023/05/15 02:18:14;;;;;;;7.82;7.13;;;21.20;69.20;;;;;;4896630;28;88767;-87
2023/05/15 02:20:40;;;;;;;8.35;7.55;;;21.10;69.30;;;;;;4897356;28;86892;-89
2023/05/15 02:23:05;;;;;;;8.15;7.35;;;21.10;69.20;;;;;;4895894;28;87430;-90
2023/05/15 02:25:59;;;;;;;7.57;6.88;;;21.10;69.20;;;;;;4895305;28;88456;-86
2023/05/15 02:28:35;;;;;;;7.97;7.22;;;21.10;69.10;;;;;;4896063;28;93955;-89
2023/05/15 02:31:06;;;;;;;8.05;7.28;;;21.20;69.20;;;;;;4896045;28;88254;-87
2023/05/15 02:33:48;;;;;;;7.82;7.13;;;21.10;69.20;;;;;;4910101;28;88139;-88
2023/05/15 02:36:19;;;;;;;8.77;7.88;;;21.10;69.30;;;;;;4895536;28;88102;-86
2023/05/15 02:38:52;;;;;;;7.32;6.63;;;21.10;69.30;;;;;;4895497;28;89854;-88
2023/05/15 02:41:18;;;;;;;7.63;6.93;;;21.10;69.40;;;;;;4897012;28;87963;-88
2023/05/15 02:43:47;;;;;;;8.15;7.35;;;21.10;69.30;;;;;;4895914;28;87849;-87
2023/05/15 02:46:15;;;;;;;8.27;7.47;;;21.10;69.30;;;;;;4903852;28;92425;-88
2023/05/15 02:48:42;;;;;;;7.60;6.90;;;21.10;69.20;;;;;;4900168;28;88797;-88
2023/05/15 02:51:08;;;;;;;7.38;6.68;;;21.10;69.50;;;;;;4903386;28;88201;-88
2023/05/15 02:53:39;;;;;;;7.82;7.13;;;21.10;69.40;;;;;;4901995;28;88760;-86
2023/05/15 02:56:05;;;;;;;8.50;7.70;;;21.10;69.30;;;;;;4902578;28;90790;-89
2023/05/15 02:58:31;;;;;;;8.20;7.40;;;21.10;69.30;;;;;;4906685;28;88553;-88
2023/05/15 03:00:56;;;;;;;8.68;7.63;;;21.10;69.30;;;;;;4900271;28;90639;-86
2023/05/15 03:03:22;;;;;;;7.70;7.00;;;21.10;69.60;;;;;;4903007;28;88865;-90
2023/05/15 03:05:48;;;;;;;7.15;6.53;;;21.10;69.40;;;;;;4900028;28;88046;-89
2023/05/15 03:08:13;;;;;;;7.97;7.28;;;21.10;69.40;;;;;;4904364;28;88016;-89
2023/05/15 03:10:39;;;;;;;7.32;6.70;;;21.10;69.30;;;;;;4904872;28;88009;-86
2023/05/15 03:13:05;;;;;;;7.40;6.78;;;21.10;69.40;;;;;;4910061;28;87611;-89
2023/05/15 03:15:30;;;;;;;8.25;7.45;;;21.10;69.30;;;;;;4901047;28;89186;-86
2023/05/15 03:17:56;;;;;;;8.07;7.28;;;21.10;69.30;;;;;;4903067;28;88978;-87
2023/05/15 03:20:22;;;;;;;7.72;7.03;;;21.10;69.30;;;;;;4894456;28;88102;-87
2023/05/15 03:22:47;;;;;;;7.82;7.13;;;21.00;69.30;;;;;;4902498;28;87547;-86
2023/05/15 03:25:13;;;;;;;7.97;7.28;;;21.00;69.30;;;;;;4901546;28;87657;-86
2023/05/15 03:27:39;;;;;;;7.70;6.90;;;21.00;69.30;;;;;;4899861;28;88191;-86
2023/05/15 03:30:06;;;;;;;8.23;7.43;;;21.00;69.20;;;;;;4902156;28;88596;-86
2023/05/15 03:32:31;;;;;;;8.02;7.32;;;21.00;69.20;;;;;;4902843;28;87300;-87
2023/05/15 03:34:57;;;;;;;7.43;6.72;;;21.00;69.20;;;;;;4901885;28;89039;-86
2023/05/15 03:37:23;;;;;;;8.23;7.47;;;21.10;69.20;;;;;;4901205;28;88703;-86
2023/05/15 03:39:48;;;;;;;8.27;7.47;;;21.00;69.30;;;;;;4899014;28;87953;-86
2023/05/15 03:42:14;;;;;;;8.18;7.28;;;21.00;69.30;;;;;;4900432;28;88605;-89
2023/05/15 03:44:40;;;;;;;7.97;7.28;;;21.00;69.40;;;;;;4904120;28;88229;-89
2023/05/15 03:47:05;;;;;;;7.13;6.43;;;21.00;69.20;;;;;;4900268;28;89860;-86
2023/05/15 03:49:31;;;;;;;8.00;7.20;;;21.00;69.30;;;;;;4899512;28;90188;-88
2023/05/15 03:51:57;;;;;;;7.53;6.82;;;21.00;69.20;;;;;;4901858;28;87854;-89
2023/05/15 03:54:22;;;;;;;7.72;7.03;;;21.00;69.10;;;;;;4883921;28;89223;-86
2023/05/15 03:56:48;;;;;;;7.88;7.18;;;21.10;69.20;;;;;;4900525;28;90097;-87
2023/05/15 03:59:14;;;;;;;7.60;6.80;;;21.00;69.00;;;;;;4902660;28;90394;-91
2023/05/15 04:01:39;;;;;;;8.25;7.43;;;21.10;68.90;;;;;;4901255;28;87350;-88
2023/05/15 04:04:05;;;;;;;7.70;6.93;;;21.10;68.90;;;;;;4901375;28;89602;-87
2023/05/15 04:06:30;;;;;;;7.95;7.25;;;21.10;68.80;;;;;;4904480;28;88534;-87
2023/05/15 04:08:56;;;;;;;8.60;7.22;;;21.10;68.80;;;;;;4901506;28;89287;-88
2023/05/15 04:11:22;;;;;;;8.02;7.28;;;21.10;68.70;;;;;;4903217;28;87568;-88
2023/05/15 04:13:48;;;;;;;8.85;7.60;;;21.10;68.60;;;;;;4900991;28;89154;-87
2023/05/15 04:16:14;;;;;;;7.53;6.82;;;21.10;68.60;;;;;;4901440;28;89187;-87
2023/05/15 04:18:40;;;;;;;8.27;7.47;;;21.10;68.20;;;;;;4895942;28;87591;-86
2023/05/15 04:21:05;;;;;;;7.97;7.07;;;21.10;68.50;;;;;;4902852;28;87355;-87
2023/05/15 04:23:31;;;;;;;8.23;7.43;;;21.10;68.40;;;;;;4901132;28;87281;-86
2023/05/15 04:25:57;;;;;;;8.00;7.28;;;21.10;68.50;;;;;;4905717;28;88008;-87
2023/05/15 04:28:22;;;;;;;7.90;7.20;;;21.10;68.40;;;;;;4905242;28;87652;-88
2023/05/15 04:30:48;;;;;;;7.32;6.68;;;21.20;68.10;;;;;;4901150;28;89338;-86
2023/05/15 04:33:14;;;;;;;8.68;7.82;;;21.20;68.30;;;;;;4893410;28;88504;-88
2023/05/15 04:35:40;;;;;;;8.10;7.30;;;21.10;68.40;;;;;;4901536;28;90131;-89
2023/05/15 04:38:06;;;;;;;7.90;7.20;;;21.10;68.60;;;;;;4897937;28;90856;-87
2023/05/15 04:40:31;;;;;;;8.35;7.55;;;21.10;69.60;;;;;;4900699;28;87430;-86
2023/05/15 04:42:57;;;;;;;7.85;7.15;;;21.00;68.80;;;;;;4903641;28;87452;-88
2023/05/15 04:45:25;;;;;;;7.63;6.97;;;21.00;68.80;;;;;;4900324;28;90558;-86
2023/05/15 04:47:51;;;;;;;7.67;6.97;;;21.10;68.70;;;;;;4904599;28;89008;-88
2023/05/15 04:50:17;;;;;;;7.90;7.18;;;21.00;68.80;;;;;;4902356;28;87526;-87
2023/05/15 04:52:42;;;;;;;7.72;7.07;;;21.00;68.90;;;;;;4899155;28;87327;-90
2023/05/15 04:55:08;;;;;;;8.10;7.20;;;21.00;68.70;;;;;;4900416;28;88844;-88
2023/05/15 04:57:34;;;;;;;9.65;7.55;;;21.00;68.80;;;;;;4899837;28;91995;-88
2023/05/15 05:00:00;;;;;;;8.05;7.28;;;21.10;68.40;;;;;;4880168;28;87076;-88
2023/05/15 05:02:26;;;;;;;7.38;6.68;;;21.10;68.40;;;;;;4895807;28;88049;-89
2023/05/15 05:04:52;;;;;;;8.88;7.97;;;21.20;68.40;;;;;;4892246;28;88916;-87
2023/05/15 05:07:17;;;;;;;10.18;8.00;;;21.20;68.40;;;;;;4894569;28;88266;-86
2023/05/15 05:09:43;;;;;;;13.65;9.77;;;21.30;68.00;;;;;;4894540;28;87760;-87
2023/05/15 05:12:09;;;;;;;15.45;11.50;;;21.50;68.20;;;;;;4893720;28;87063;-84
2023/05/15 05:14:35;;;;;;;29.35;12.35;;;21.60;68.20;;;;;;4892049;28;88543;-84
2023/05/15 05:17:01;;;;;;;22.35;12.98;;;21.80;67.50;;;;;;4890502;28;90532;-85
2023/05/15 05:19:27;;;;;;;26.17;13.93;;;21.90;66.00;;;;;;4892185;28;88365;-83
2023/05/15 05:21:53;;;;;;;23.40;12.05;;;22.10;65.90;;;;;;4893109;28;88084;-86
2023/05/15 05:24:19;;;;;;;24.10;12.70;;;22.20;65.80;;;;;;4890740;28;87790;-84
2023/05/15 05:26:45;;;;;;;23.13;13.52;;;22.20;65.90;;;;;;4894698;28;87441;-84
2023/05/15 05:29:11;;;;;;;37.25;13.95;;;22.40;65.90;;;;;;4893937;28;87225;-84
2023/05/15 05:31:36;;;;;;;29.00;13.70;;;22.40;65.90;;;;;;4895264;28;89653;-86
2023/05/15 05:34:02;;;;;;;22.88;12.23;;;22.50;65.70;;;;;;4892869;28;89973;-85
2023/05/15 05:36:28;;;;;;;22.58;12.98;;;22.40;66.10;;;;;;4893791;28;88711;-87
2023/05/15 05:38:54;;;;;;;23.08;12.52;;;22.40;66.10;;;;;;4892453;28;87364;-85
2023/05/15 05:41:20;;;;;;;23.15;13.20;;;22.40;66.30;;;;;;4885263;28;87796;-86
2023/05/15 05:43:46;;;;;;;29.25;13.18;;;22.40;66.70;;;;;;4893085;28;88895;-87
2023/05/15 05:46:11;;;;;;;24.42;12.50;;;22.30;66.80;;;;;;4895921;28;88904;-86
2023/05/15 05:48:37;;;;;;;28.80;14.82;;;22.30;66.80;;;;;;4893448;28;89607;-84
2023/05/15 05:51:03;;;;;;;25.65;12.63;;;22.30;67.00;;;;;;4894316;28;87788;-87
2023/05/15 05:53:28;;;;;;;23.77;12.80;;;22.30;67.10;;;;;;4892275;28;89082;-86
2023/05/15 05:55:54;;;;;;;26.10;13.15;;;22.30;67.30;;;;;;4892634;28;87510;-85
2023/05/15 05:58:20;;;;;;;24.00;12.90;;;22.30;67.40;;;;;;4892229;28;87972;-87
2023/05/15 06:00:46;;;;;;;28.45;14.27;;;22.20;67.60;;;;;;4894255;28;87568;-86
2023/05/15 06:03:13;;;;;;;30.08;13.88;;;22.20;68.00;;;;;;4898438;28;88308;-84
2023/05/15 06:05:41;;;;;;;25.65;13.45;;;22.20;68.20;;;;;;4886464;28;89753;-85
2023/05/15 06:08:08;;;;;;;23.67;13.73;;;22.20;68.10;;;;;;4877730;28;88490;-86
2023/05/15 06:10:33;;;;;;;34.95;15.40;;;22.20;68.20;;;;;;4910352;28;89356;-85
2023/05/15 06:12:59;;;;;;;22.92;14.13;;;22.30;67.40;;;;;;4893444;28;87430;-84
2023/05/15 06:15:25;;;;;;;27.10;14.98;;;22.20;67.40;;;;;;4895005;28;87912;-85
2023/05/15 06:17:50;;;;;;;25.23;15.75;;;22.30;68.20;;;;;;4894338;28;87480;-85
2023/05/15 06:20:16;;;;;;;26.88;15.27;;;22.30;67.80;;;;;;4887309;28;89437;-85
2023/05/15 06:22:42;;;;;;;26.35;16.20;;;22.30;68.00;;;;;;4888655;28;87699;-83
2023/05/15 06:25:12;;;;;;;29.58;16.35;;;22.40;66.60;;;;;;4890098;28;88226;-82
2023/05/15 06:27:39;;;;;;;32.55;16.05;;;22.40;66.40;;;;;;4890971;28;87364;-82
2023/05/15 06:30:06;;;;;;;30.27;14.50;;;22.40;67.30;;;;;;4889781;28;87255;-84
2023/05/15 06:32:32;;;;;;;25.40;14.27;;;22.40;67.70;;;;;;4888395;28;89281;-82
2023/05/15 06:35:00;;;;;;;25.27;14.57;;;22.40;67.80;;;;;;4891062;28;89683;-82
2023/05/15 06:37:26;;;;;;;28.17;16.10;;;22.40;68.00;;;;;;4890202;28;87471;-83
2023/05/15 06:39:52;;;;;;;29.65;15.93;;;22.40;68.10;;;;;;4891107;28;87455;-83
2023/05/15 06:42:17;;;;;;;30.42;15.18;;;22.40;68.30;;;;;;4888004;28;89234;-85
2023/05/15 06:44:43;;;;;;;25.48;14.88;;;22.40;68.50;;;;;;4890509;28;88024;-84
2023/05/15 06:47:08;;;;;;;27.65;14.05;;;22.40;68.70;;;;;;4888604;28;87606;-83
2023/05/15 06:49:34;;;;;;;27.00;14.77;;;22.30;69.30;;;;;;4889424;28;87804;-83
2023/05/15 06:52:00;;;;;;;27.80;14.40;;;22.30;69.10;;;;;;4890396;28;88437;-85
2023/05/15 06:54:26;;;;;;;31.83;14.45;;;22.40;69.40;;;;;;4873319;28;91009;-88
2023/05/15 06:56:51;;;;;;;25.02;14.60;;;22.40;69.50;;;;;;4887082;28;89175;-84
2023/05/15 06:59:17;;;;;;;29.05;16.02;;;22.40;69.70;;;;;;4890400;28;87364;-83
2023/05/15 07:01:42;;;;;;;25.80;15.30;;;22.40;69.90;;;;;;4891635;28;90346;-83
2023/05/15 07:04:08;;;;;;;27.85;14.43;;;22.40;70.20;;;;;;4893384;28;87846;-85
2023/05/15 07:06:35;;;;;;;31.58;14.43;;;22.40;69.80;;;;;;4877017;28;87501;-85
2023/05/15 07:09:00;;;;;;;31.27;15.27;;;22.40;70.20;;;;;;4891527;28;88562;-88
2023/05/15 07:11:27;;;;;;;28.35;14.68;;;22.50;70.30;;;;;;4893233;28;87800;-94
2023/05/15 07:13:52;;;;;;;31.40;15.48;;;22.50;70.10;;;;;;4890219;28;87334;-90
2023/05/15 07:16:18;;;;;;;36.85;15.57;;;22.60;70.40;;;;;;4889193;28;87732;-89
2023/05/15 07:18:44;;;;;;;26.55;14.60;;;22.60;70.50;;;;;;4887141;28;87436;-92
2023/05/15 07:21:10;;;;;;;28.42;14.40;;;22.60;70.70;;;;;;4886860;28;89341;-90
2023/05/15 07:23:37;;;;;;;31.65;15.10;;;22.60;70.90;;;;;;4885321;28;88385;-88
2023/05/15 07:26:03;;;;;;;26.15;13.80;;;22.80;70.90;;;;;;4887905;28;87145;-91
2023/05/15 07:28:29;;;;;;;25.00;14.77;;;22.80;70.20;;;;;;4886716;28;89425;-90
2023/05/15 07:30:54;;;;;;;30.70;16.08;;;22.80;70.20;;;;;;4888081;28;87785;-87
2023/05/15 07:33:20;;;;;;;33.35;13.98;;;22.90;71.00;;;;;;4886059;28;90322;-88
2023/05/15 07:35:46;;;;;;;27.50;14.55;;;23.00;71.00;;;;;;4886605;28;87873;-88
2023/05/15 07:38:11;;;;;;;34.97;15.10;;;23.00;71.90;;;;;;4886580;28;87121;-88
2023/05/15 07:40:37;;;;;;;37.05;16.80;;;23.10;72.10;;;;;;4903433;28;90837;-87
2023/05/15 07:43:03;;;;;;;34.30;15.35;;;23.10;72.60;;;;;;4886618;28;90028;-87
2023/05/15 07:45:28;;;;;;;29.60;15.73;;;23.10;73.00;;;;;;4887324;28;88876;-87
2023/05/15 07:47:54;;;;;;;29.50;15.13;;;23.10;72.30;;;;;;4888212;28;88033;-87
2023/05/15 07:50:20;;;;;;;31.08;15.93;;;23.20;72.50;;;;;;4886366;28;87671;-89
2023/05/15 07:52:46;;;;;;;34.35;16.67;;;23.20;71.80;;;;;;4887095;28;88062;-88
2023/05/15 07:55:12;;;;;;;33.40;17.13;;;23.20;71.70;;;;;;4886500;28;87710;-89
2023/05/15 07:57:38;;;;;;;32.00;16.45;;;23.30;70.60;;;;;;4887076;28;89766;-89
2023/05/15 08:00:08;;;;;;;36.60;16.95;;;23.30;70.60;;;;;;4886175;28;87555;-88
2023/05/15 08:02:35;;;;;;;31.35;17.80;;;23.30;70.90;;;;;;4886070;28;87503;-87
2023/05/15 08:05:00;;;;;;;33.42;17.90;;;23.30;72.00;;;;;;4889831;28;87718;-90
2023/05/15 08:07:26;;;;;;;36.95;17.25;;;23.40;71.80;;;;;;4889864;28;87726;-95
2023/05/15 08:09:52;;;;;;;38.58;18.60;;;23.40;71.40;;;;;;4889982;28;88703;-91
2023/05/15 08:12:21;;;;;;;36.03;17.73;;;23.40;71.80;;;;;;4892537;28;89456;-85
2023/05/15 08:14:49;;;;;;;36.53;17.20;;;23.40;71.70;;;;;;4895310;28;87738;-83
2023/05/15 08:17:15;;;;;;;34.30;18.48;;;23.40;71.80;;;;;;4895220;28;87539;-83
2023/05/15 08:19:41;;;;;;;30.20;19.13;;;23.50;72.00;;;;;;4896587;28;87429;-84
2023/05/15 08:22:07;;;;;;;31.63;17.80;;;23.40;72.60;;;;;;4893376;28;88752;-83
2023/05/15 08:24:33;;;;;;;34.88;18.58;;;23.50;72.90;;;;;;4900284;28;87530;-88
2023/05/15 08:26:59;;;;;;;35.75;19.95;;;23.50;73.30;;;;;;4901417;28;87365;-85
2023/05/15 08:29:24;;;;;;;30.50;17.13;;;23.50;73.20;;;;;;4890915;28;88629;-90
2023/05/15 08:31:50;;;;;;;30.08;18.45;;;23.60;73.00;;;;;;4907468;28;87561;-87
2023/05/15 08:34:16;;;;;;;32.67;19.58;;;23.50;72.40;;;;;;4895072;28;88506;-87
2023/05/15 08:36:42;;;;;;;36.63;18.80;;;23.50;72.70;;;;;;4894020;28;87666;-85
2023/05/15 08:39:08;;;;;;;32.78;19.00;;;23.50;72.50;;;;;;4909100;28;90720;-87
2023/05/15 08:41:44;;;;;;;31.23;18.85;;;23.50;72.30;;;;;;4893734;28;90250;-86
2023/05/15 08:44:10;;;;;;;30.25;18.67;;;23.60;72.00;;;;;;4892321;28;87369;-87
2023/05/15 08:46:36;;;;;;;35.88;18.83;;;23.60;71.50;;;;;;4889390;28;88191;-87
2023/05/15 08:49:13;;;;;;;33.47;19.80;;;23.60;71.10;;;;;;4890143;28;88807;-86
2023/05/15 08:51:39;;;;;;;26.63;19.50;;;23.60;71.10;;;;;;4889897;28;88569;-84
2023/05/15 08:54:05;;;;;;;27.52;18.90;;;23.70;70.70;;;;;;4890230;28;87676;-87
2023/05/15 08:56:31;;;;;;;27.17;18.65;;;23.70;70.60;;;;;;4888087;28;87398;-92
2023/05/15 08:58:57;;;;;;;27.98;18.48;;;23.70;70.50;;;;;;4885621;28;89585;-90
2023/05/15 09:01:23;;;;;;;30.40;17.92;;;23.80;70.50;;;;;;4886426;28;89274;-93
2023/05/15 09:03:53;;;;;;;32.45;19.10;;;23.80;70.40;;;;;;4887412;28;87431;-90
2023/05/15 09:06:21;;;;;;;25.00;18.27;;;23.80;70.50;;;;;;4886905;28;88764;-90
2023/05/15 09:08:53;;;;;;;26.85;16.90;;;23.80;70.60;;;;;;4884975;28;87752;-89
2023/05/15 09:11:20;;;;;;;28.73;18.65;;;23.70;69.70;;;;;;4886126;28;89779;-88
2023/05/15 09:13:47;;;;;;;31.75;20.52;;;23.80;70.20;;;;;;4887979;28;87841;-85
2023/05/15 09:16:14;;;;;;;30.15;18.65;;;23.90;71.40;;;;;;4896478;28;92322;-86
2023/05/15 09:18:43;;;;;;;31.02;20.83;;;23.90;70.20;;;;;;4903181;28;90942;-88
2023/05/15 09:21:24;;;;;;;29.10;19.50;;;23.90;69.90;;;;;;4879614;28;88232;-88
2023/05/15 09:23:49;;;;;;;28.35;18.77;;;23.80;69.80;;;;;;4876989;28;88850;-88
2023/05/15 09:26:15;;;;;;;29.17;19.05;;;23.80;70.00;;;;;;4883721;28;87477;-88
2023/05/15 09:28:41;;;;;;;34.17;19.60;;;23.80;70.20;;;;;;4869443;28;88543;-87
2023/05/15 09:31:07;;;;;;;31.30;18.50;;;23.90;70.30;;;;;;4869135;28;88571;-88
2023/05/15 09:33:38;;;;;;;33.10;20.15;;;23.90;70.60;;;;;;4884363;28;87949;-89
2023/05/15 09:36:06;;;;;;;34.10;19.17;;;23.90;70.40;;;;;;4888881;28;88893;-86
2023/05/15 09:38:35;;;;;;;33.08;19.17;;;23.90;70.50;;;;;;4899569;28;88031;-86
2023/05/15 09:41:05;;;;;;;30.10;20.97;;;23.90;70.60;;;;;;4893167;28;87413;-87
2023/05/15 09:43:38;;;;;;;29.75;19.70;;;23.80;70.80;;;;;;4892203;28;87878;-87
2023/05/15 09:46:07;;;;;;;32.85;19.70;;;23.70;70.60;;;;;;4886603;28;90333;-90
2023/05/15 09:48:33;;;;;;;33.53;19.15;;;23.70;71.00;;;;;;4888734;28;88998;-87
2023/05/15 09:51:02;;;;;;;33.75;19.63;;;23.70;70.90;;;;;;4893787;28;88449;-89
2023/05/15 09:53:28;;;;;;;31.23;21.05;;;23.70;70.60;;;;;;4893716;28;87720;-86
2023/05/15 09:55:55;;;;;;;35.47;20.48;;;23.70;69.80;;;;;;4890285;28;88122;-87
2023/05/15 09:58:22;;;;;;;29.83;19.65;;;23.70;69.40;;;;;;4894104;28;88110;-87
2023/05/15 10:00:48;;;;;;;33.63;20.90;;;23.70;69.30;;;;;;4892317;28;87421;-87
2023/05/15 10:03:14;;;;;;;33.03;20.95;;;23.70;69.50;;;;;;4883883;28;87533;-89
2023/05/15 10:05:39;;;;;;;32.38;22.45;;;23.70;69.50;;;;;;4885966;28;87248;-88
2023/05/15 10:08:05;;;;;;;38.35;22.35;;;23.70;69.60;;;;;;4881438;28;87917;-88
2023/05/15 10:10:32;;;;;;;27.02;20.77;;;23.70;69.30;;;;;;4886445;28;88088;-88
2023/05/15 10:13:02;;;;;;;31.92;22.40;;;23.70;69.90;;;;;;4884983;28;88921;-89
2023/05/15 10:15:28;;;;;;;35.42;21.00;;;23.70;69.90;;;;;;4882730;28;87385;-88
2023/05/15 10:17:54;;;;;;;28.02;20.98;;;23.60;69.50;;;;;;4883937;28;88195;-88
2023/05/15 10:20:22;;;;;;;30.98;20.58;;;23.60;69.70;;;;;;4885151;28;87432;-87
2023/05/15 10:22:53;;;;;;;28.45;20.45;;;23.60;69.50;;;;;;4883490;28;87257;-88
2023/05/15 10:25:31;;;;;;;37.28;19.52;;;23.60;69.20;;;;;;4872838;28;91291;-86
2023/05/15 10:27:57;;;;;;;30.55;19.25;;;23.60;66.20;;;;;;4885073;28;88137;-88
2023/05/15 10:30:24;;;;;;;27.65;19.63;;;23.60;67.60;;;;;;4884494;28;90740;-87
2023/05/15 10:32:50;;;;;;;24.48;19.10;;;23.70;67.10;;;;;;4885866;28;88431;-88
2023/05/15 10:35:17;;;;;;;28.25;20.27;;;23.70;67.60;;;;;;4883495;28;88300;-91
2023/05/15 10:37:45;;;;;;;25.80;18.58;;;23.60;67.30;;;;;;4882989;28;88582;-88
2023/05/15 10:40:13;;;;;;;26.10;17.98;;;23.60;66.80;;;;;;4891518;28;88503;-88
2023/05/15 10:42:42;;;;;;;28.77;19.55;;;23.60;65.90;;;;;;4874697;28;87769;-87
2023/05/15 10:45:08;;;;;;;27.08;18.52;;;23.50;66.50;;;;;;4882840;28;88418;-88
2023/05/15 10:47:35;;;;;;;30.67;19.92;;;23.50;66.10;;;;;;4886173;28;88322;-87
2023/05/15 10:50:02;;;;;;;29.00;19.13;;;23.40;66.40;;;;;;4884489;28;88404;-90
2023/05/15 10:52:30;;;;;;;28.58;18.70;;;23.40;64.60;;;;;;4884651;28;87864;-89
2023/05/15 10:54:55;;;;;;;27.00;18.73;;;23.40;65.20;;;;;;4886832;28;87218;-89
2023/05/15 10:57:21;;;;;;;30.23;20.85;;;23.40;63.30;;;;;;4887353;28;88229;-88
2023/05/15 10:59:47;;;;;;;32.58;20.33;;;23.50;64.80;;;;;;4885610;28;90203;-88
2023/05/15 11:02:20;;;;;;;30.52;19.77;;;23.40;64.60;;;;;;4888407;28;88892;-89
2023/05/15 11:04:46;;;;;;;31.80;21.13;;;23.30;64.70;;;;;;4891484;28;87857;-88
2023/05/15 11:07:15;;;;;;;29.42;21.45;;;23.40;64.20;;;;;;4879461;28;88018;-89
2023/05/15 11:09:41;;;;;;;30.80;21.15;;;23.40;64.50;;;;;;4890598;28;87764;-88
2023/05/15 11:12:10;;;;;;;31.10;21.95;;;23.40;65.00;;;;;;4889543;28;87503;-87
2023/05/15 11:14:37;;;;;;;31.77;19.38;;;23.40;65.20;;;;;;4888774;28;87821;-88
2023/05/15 11:17:08;;;;;;;34.10;22.02;;;23.50;65.30;;;;;;4889394;28;87324;-87
2023/05/15 11:19:35;;;;;;;37.60;19.83;;;23.50;65.30;;;;;;4889544;28;87704;-88
2023/05/15 11:22:26;;;;;;;33.45;19.25;;;23.60;65.30;;;;;;4891479;28;87911;-88
2023/05/15 11:25:08;;;;;;;30.02;19.15;;;23.60;65.60;;;;;;4888655;28;87863;-88
2023/05/15 11:27:54;;;;;;;30.85;18.92;;;23.60;66.00;;;;;;4888451;28;89967;-88
2023/05/15 11:30:21;;;;;;;29.95;19.48;;;23.50;66.00;;;;;;4889529;28;87790;-88
2023/05/15 11:33:00;;;;;;;35.05;20.17;;;23.60;66.40;;;;;;4889511;28;88434;-90
2023/05/15 11:35:33;;;;;;;28.33;19.15;;;23.60;66.50;;;;;;4890002;28;87516;-89
2023/05/15 11:38:10;;;;;;;30.20;20.85;;;23.70;66.60;;;;;;4889957;28;88622;-88
2023/05/15 11:40:55;;;;;;;30.67;19.85;;;23.70;66.70;;;;;;4890484;28;87928;-88
2023/05/15 11:43:36;;;;;;;27.75;18.50;;;23.70;66.10;;;;;;4887350;28;87795;-88
2023/05/15 11:46:02;;;;;;;27.27;19.60;;;23.70;66.90;;;;;;4887856;28;86951;-87
2023/05/15 11:48:40;;;;;;;32.35;18.77;;;23.70;66.80;;;;;;4886761;28;87998;-87
2023/05/15 11:51:23;;;;;;;27.55;19.25;;;23.70;66.80;;;;;;4889528;28;87992;-86
2023/05/15 11:53:51;;;;;;;26.02;18.35;;;23.70;67.10;;;;;;4889856;28;87876;-88
2023/05/15 11:56:21;;;;;;;26.40;17.58;;;23.70;67.70;;;;;;4887129;28;89634;-88
2023/05/15 11:58:49;;;;;;;33.47;19.85;;;23.70;67.90;;;;;;4904814;28;90767;-87
2023/05/15 12:01:15;;;;;;;30.45;18.45;;;23.70;67.80;;;;;;4890248;28;90544;-86
2023/05/15 12:03:40;;;;;;;30.40;18.70;;;23.60;67.10;;;;;;4879341;28;87730;-86
2023/05/15 12:06:06;;;;;;;23.75;17.17;;;23.60;67.50;;;;;;4892003;28;88016;-88
2023/05/15 12:08:36;;;;;;;26.30;18.83;;;23.70;67.60;;;;;;4889178;28;90108;-88
2023/05/15 12:11:03;;;;;;;31.20;19.55;;;23.70;67.30;;;;;;4883080;28;87311;-85
2023/05/15 12:13:31;;;;;;;30.48;18.55;;;23.70;67.80;;;;;;4888819;28;88115;-87
2023/05/15 12:15:57;;;;;;;28.90;19.40;;;23.70;67.60;;;;;;4888063;28;88079;-87
2023/05/15 12:18:23;;;;;;;25.30;18.38;;;23.70;67.70;;;;;;4888189;28;89091;-87
2023/05/15 12:20:51;;;;;;;28.38;18.48;;;23.70;67.60;;;;;;4890291;28;89638;-86
2023/05/15 12:23:20;;;;;;;26.75;18.98;;;23.60;66.20;;;;;;4881846;28;87880;-88
2023/05/15 12:25:48;;;;;;;27.27;18.73;;;23.60;66.60;;;;;;4900544;28;87598;-87
2023/05/15 12:28:15;;;;;;;23.30;18.15;;;23.60;65.90;;;;;;4890295;28;92825;-85
2023/05/15 12:30:41;;;;;;;26.67;18.52;;;23.60;65.40;;;;;;4891284;28;88025;-89
2023/05/15 12:33:09;;;;;;;25.35;18.50;;;23.60;64.90;;;;;;4891804;28;87829;-87
2023/05/15 12:35:36;;;;;;;26.85;19.05;;;23.60;65.10;;;;;;4888997;28;87724;-86
2023/05/15 12:38:05;;;;;;;34.50;19.75;;;23.60;64.90;;;;;;4889012;28;88209;-87